Port Royal, Kentucky
Current Conditions -  °F | °C
As of 5:53 PM on Monday 20 Oct 2014 (Local Time) from KFFT Reporting Station
Clear Clear  
Wind Chill: 63°   Ceiling: Unl
Heat Index: 63°   Visibility: 10mi
Dew Point: 49°   Wind: 12mph
Humidity: 60%   Direction: 220°SW
Pressure: 29.89"   Gusts: NA
Location:  38.56°N, 85.08°W
Report Text: KFFT 202153Z AUTO 22010KT 10SM CLR 17/09 A2989 RMK AO2 SLP120 T01720094
Loading
Personal Weather Stations






























Interactive Weather Map
Tropical Storm Tracking
New forecast layout! Learn more

10-Day Weather Forecast

Advertisements
Track Severe Weather on mobile